createdAt,value
2017-01-12T00:00:16.182Z,0
2017-01-12T00:01:17.149Z,0
2017-01-12T00:02:16.467Z,0
2017-01-12T00:03:15.614Z,0
2017-01-12T00:04:16.460Z,0
2017-01-12T00:05:17.204Z,0
2017-01-12T00:06:16.427Z,0
2017-01-12T00:07:15.505Z,0
2017-01-12T00:08:16.520Z,0
2017-01-12T00:09:15.773Z,0
2017-01-12T00:10:16.939Z,0
2017-01-12T00:11:16.261Z,0
2017-01-12T00:12:16.209Z,0
2017-01-12T00:13:15.960Z,0
2017-01-12T00:14:16.679Z,0
2017-01-12T00:15:16.186Z,0
2017-01-12T00:16:14.892Z,0
2017-01-12T00:17:15.986Z,0
2017-01-12T00:18:15.426Z,0
2017-01-12T00:19:15.626Z,0
2017-01-12T00:20:15.213Z,0
2017-01-12T00:21:15.805Z,0
2017-01-12T00:22:16.294Z,0
2017-01-12T00:23:16.122Z,0
2017-01-12T00:24:16.810Z,0
2017-01-12T00:25:15.861Z,0
2017-01-12T00:26:16.121Z,0
2017-01-12T00:27:16.288Z,0
2017-01-12T00:28:16.998Z,0
2017-01-12T00:29:14.652Z,0
2017-01-12T00:30:14.900Z,0
2017-01-12T00:31:15.947Z,0
2017-01-12T00:32:15.073Z,0
2017-01-12T00:33:14.911Z,0
2017-01-12T00:34:16.385Z,0
2017-01-12T00:35:14.861Z,0
2017-01-12T00:36:16.141Z,0
2017-01-12T00:37:15.978Z,0
2017-01-12T00:38:15.591Z,0
2017-01-12T00:39:16.011Z,0
2017-01-12T00:40:16.221Z,0
2017-01-12T00:41:15.579Z,0
2017-01-12T00:42:14.935Z,0
2017-01-12T00:43:15.882Z,0
2017-01-12T00:44:15.658Z,0
2017-01-12T00:45:15.020Z,0
2017-01-12T00:46:15.920Z,0
2017-01-12T00:47:14.477Z,0
2017-01-12T00:48:15.872Z,0
2017-01-12T00:49:15.114Z,0
2017-01-12T00:50:15.378Z,0
2017-01-12T00:51:15.463Z,0
2017-01-12T00:52:15.482Z,0
2017-01-12T00:53:15.416Z,0
2017-01-12T00:54:14.955Z,0
2017-01-12T00:55:15.511Z,0
2017-01-12T00:56:15.388Z,0
2017-01-12T00:57:15.956Z,0
2017-01-12T00:58:16.275Z,0
2017-01-12T00:59:14.746Z,0
2017-01-12T01:00:14.118Z,0
2017-01-12T01:01:15.611Z,0
2017-01-12T01:02:15.406Z,0
2017-01-12T01:03:15.376Z,0
2017-01-12T01:04:14.816Z,0
2017-01-12T01:05:15.392Z,0
2017-01-12T01:06:15.174Z,0
2017-01-12T01:07:14.701Z,0
2017-01-12T01:08:15.013Z,0
2017-01-12T01:09:15.564Z,0
2017-01-12T01:10:14.685Z,0
2017-01-12T01:11:14.562Z,0
2017-01-12T01:12:14.602Z,0
2017-01-12T01:13:15.288Z,0
2017-01-12T01:14:15.147Z,0
2017-01-12T01:15:13.583Z,0
2017-01-12T01:16:14.295Z,0
2017-01-12T01:17:13.687Z,0
2017-01-12T01:18:13.950Z,0
2017-01-12T01:19:13.757Z,0
2017-01-12T01:20:14.969Z,0
2017-01-12T01:21:14.969Z,0
2017-01-12T01:22:15.064Z,0
2017-01-12T01:23:14.396Z,0
2017-01-12T01:24:14.934Z,0
2017-01-12T01:25:13.681Z,0
2017-01-12T01:26:15.305Z,0
2017-01-12T01:27:14.181Z,0
2017-01-12T01:28:13.201Z,0
2017-01-12T01:29:13.417Z,0
2017-01-12T01:30:14.531Z,0
2017-01-12T01:31:15.151Z,0
2017-01-12T01:32:13.808Z,0
2017-01-12T01:33:13.740Z,0
2017-01-12T01:34:13.459Z,0
2017-01-12T01:35:14.239Z,0
2017-01-12T01:36:14.565Z,0
2017-01-12T01:37:15.097Z,0
2017-01-12T01:38:14.423Z,0
2017-01-12T01:39:14.963Z,0
2017-01-12T01:40:13.676Z,0
2017-01-12T01:41:13.300Z,0
2017-01-12T01:42:13.844Z,0
2017-01-12T01:43:14.534Z,0
2017-01-12T01:44:14.163Z,0
2017-01-12T01:45:12.963Z,0
2017-01-12T01:46:13.813Z,0
2017-01-12T01:47:12.914Z,0
2017-01-12T01:48:14.440Z,0
2017-01-12T01:49:14.212Z,0
2017-01-12T01:50:14.041Z,0
2017-01-12T01:51:14.241Z,0
2017-01-12T01:52:12.766Z,0
2017-01-12T01:53:13.305Z,0
2017-01-12T01:54:12.912Z,0
2017-01-12T01:55:14.829Z,0
2017-01-12T01:56:14.250Z,0
2017-01-12T01:57:14.226Z,0
2017-01-12T01:58:12.279Z,0
2017-01-12T01:59:14.831Z,0
2017-01-12T02:00:13.358Z,0
2017-01-12T02:01:13.775Z,0
2017-01-12T02:02:12.763Z,0
2017-01-12T02:03:13.433Z,0
2017-01-12T02:04:13.096Z,0
2017-01-12T02:05:12.585Z,0
2017-01-12T02:06:13.056Z,0
2017-01-12T02:07:13.285Z,0
2017-01-12T02:08:12.509Z,0
2017-01-12T02:09:13.135Z,0
2017-01-12T02:10:13.404Z,0
2017-01-12T02:11:12.427Z,0
2017-01-12T02:12:14.250Z,0
2017-01-12T02:13:12.775Z,0
2017-01-12T02:14:12.414Z,0
2017-01-12T02:15:13.453Z,0
2017-01-12T02:16:13.281Z,0
2017-01-12T02:17:13.374Z,0
2017-01-12T02:18:13.348Z,0
2017-01-12T02:19:12.557Z,0
2017-01-12T02:20:14.428Z,0
2017-01-12T02:21:12.772Z,0
2017-01-12T02:22:12.353Z,0
2017-01-12T02:23:12.048Z,0
2017-01-12T02:24:12.515Z,0
2017-01-12T02:25:13.244Z,0
2017-01-12T02:26:13.456Z,0
2017-01-12T02:27:13.165Z,0
2017-01-12T02:28:12.845Z,0
2017-01-12T02:29:13.534Z,0
2017-01-12T02:30:11.744Z,0
2017-01-12T02:31:12.754Z,0
2017-01-12T02:32:13.055Z,0
2017-01-12T02:33:12.067Z,0
2017-01-12T02:34:12.015Z,0
2017-01-12T02:35:12.312Z,0
2017-01-12T02:36:13.845Z,0
2017-01-12T02:37:12.933Z,0
2017-01-12T02:38:11.947Z,0
2017-01-12T02:39:12.260Z,0
2017-01-12T02:40:12.446Z,0
2017-01-12T02:41:11.865Z,0
2017-01-12T02:42:13.520Z,0
2017-01-12T02:43:13.145Z,0
2017-01-12T02:44:13.158Z,0
2017-01-12T02:45:11.827Z,0
2017-01-12T02:46:12.098Z,0
2017-01-12T02:47:12.374Z,0
2017-01-12T02:48:13.326Z,0
2017-01-12T02:49:12.355Z,0
2017-01-12T02:50:11.565Z,0
2017-01-12T02:51:12.934Z,0
2017-01-12T02:52:11.469Z,0
2017-01-12T02:53:11.595Z,0
2017-01-12T02:54:12.573Z,0
2017-01-12T02:55:12.282Z,0
2017-01-12T02:56:12.499Z,0
2017-01-12T02:57:12.601Z,0
2017-01-12T02:58:11.706Z,0
2017-01-12T02:59:12.112Z,0
2017-01-12T03:00:12.450Z,0
2017-01-12T03:01:11.501Z,0
2017-01-12T03:02:12.588Z,0
2017-01-12T03:03:11.584Z,0
2017-01-12T03:04:12.255Z,0
2017-01-12T03:05:13.307Z,0
2017-01-12T03:06:12.237Z,0
2017-01-12T03:07:12.897Z,0
2017-01-12T03:08:12.613Z,0
2017-01-12T03:09:12.530Z,0
2017-01-12T03:10:11.498Z,0
2017-01-12T03:11:12.235Z,0
2017-01-12T03:12:11.299Z,0
2017-01-12T03:13:10.943Z,0
2017-01-12T03:14:10.999Z,0
2017-01-12T03:15:12.563Z,0
2017-01-12T03:16:11.278Z,0
2017-01-12T03:17:11.141Z,0
2017-01-12T03:18:11.211Z,0
2017-01-12T03:19:11.371Z,0
2017-01-12T03:20:12.220Z,0
2017-01-12T03:21:11.240Z,0
2017-01-12T03:22:11.979Z,0
2017-01-12T03:23:11.199Z,0
2017-01-12T03:24:11.514Z,0
2017-01-12T03:25:11.648Z,0
2017-01-12T03:26:11.157Z,0
2017-01-12T03:27:11.120Z,0
2017-01-12T03:28:11.723Z,0
2017-01-12T03:29:11.035Z,0
2017-01-12T03:30:11.365Z,0
2017-01-12T03:31:11.673Z,0
2017-01-12T03:32:11.224Z,0
2017-01-12T03:33:10.542Z,0
2017-01-12T03:34:11.283Z,0
2017-01-12T03:35:11.892Z,0
2017-01-12T03:36:11.762Z,0
2017-01-12T03:37:11.109Z,0
2017-01-12T03:38:11.162Z,0
2017-01-12T03:39:11.229Z,0
2017-01-12T03:40:11.350Z,0
2017-01-12T03:41:10.778Z,0
2017-01-12T03:42:11.263Z,0
2017-01-12T03:43:11.439Z,0
2017-01-12T03:44:12.367Z,0
2017-01-12T03:45:10.993Z,0
2017-01-12T03:46:11.282Z,0
2017-01-12T03:47:11.200Z,0
2017-01-12T03:48:11.255Z,0
2017-01-12T03:49:11.576Z,0
2017-01-12T03:50:10.705Z,0
2017-01-12T03:51:11.474Z,0
2017-01-12T03:52:10.603Z,0
2017-01-12T03:53:11.123Z,0
2017-01-12T03:54:10.123Z,0
2017-01-12T03:55:10.428Z,0
2017-01-12T03:56:10.572Z,0
2017-01-12T03:57:09.859Z,0
2017-01-12T03:58:10.591Z,0
2017-01-12T03:59:10.983Z,0
2017-01-12T04:00:10.972Z,0
2017-01-12T04:01:11.095Z,0
2017-01-12T04:02:10.429Z,0
2017-01-12T04:03:10.453Z,0
2017-01-12T04:04:10.534Z,0
2017-01-12T04:05:09.435Z,0
2017-01-12T04:06:10.656Z,0
2017-01-12T04:07:10.932Z,0
2017-01-12T04:08:10.356Z,0
2017-01-12T04:09:10.015Z,0
2017-01-12T04:10:10.394Z,0
2017-01-12T04:11:11.101Z,0
2017-01-12T04:12:11.014Z,0
2017-01-12T04:13:10.084Z,0
2017-01-12T04:14:10.974Z,0
2017-01-12T04:15:11.113Z,0
2017-01-12T04:16:11.093Z,0
2017-01-12T04:17:10.042Z,0
2017-01-12T04:18:10.872Z,0
2017-01-12T04:19:09.748Z,0
2017-01-12T04:20:09.819Z,0
2017-01-12T04:21:09.788Z,0
2017-01-12T04:22:08.878Z,0
2017-01-12T04:23:09.392Z,0
2017-01-12T04:24:11.369Z,0
2017-01-12T04:25:10.350Z,0
2017-01-12T04:26:10.227Z,0
2017-01-12T04:27:10.817Z,0
2017-01-12T04:28:08.881Z,0
2017-01-12T04:29:10.493Z,0
2017-01-12T04:30:09.572Z,0
2017-01-12T04:31:09.476Z,0
2017-01-12T04:32:09.204Z,0
2017-01-12T04:33:10.155Z,0
2017-01-12T04:34:09.484Z,0
2017-01-12T04:35:10.133Z,0
2017-01-12T04:36:09.693Z,0
2017-01-12T04:37:09.074Z,0
2017-01-12T04:38:10.712Z,0
2017-01-12T04:39:08.969Z,0
2017-01-12T04:40:09.311Z,0
2017-01-12T04:41:10.595Z,0
2017-01-12T04:42:09.579Z,0
2017-01-12T04:43:09.449Z,0
2017-01-12T04:44:08.868Z,0
2017-01-12T04:45:10.070Z,0
2017-01-12T04:46:09.434Z,0
2017-01-12T04:47:09.521Z,0
2017-01-12T04:48:10.455Z,0
2017-01-12T04:49:09.382Z,0
2017-01-12T04:50:09.125Z,0
2017-01-12T04:51:09.053Z,0
2017-01-12T04:52:10.294Z,0
2017-01-12T04:53:09.470Z,0
2017-01-12T04:54:08.937Z,0
2017-01-12T04:55:09.229Z,0
2017-01-12T04:56:09.307Z,0
2017-01-12T04:57:08.590Z,0
2017-01-12T04:58:09.330Z,0
2017-01-12T04:59:08.536Z,0
2017-01-12T05:00:09.215Z,0
2017-01-12T05:01:09.518Z,0
2017-01-12T05:02:09.782Z,0
2017-01-12T05:03:08.379Z,0
2017-01-12T05:04:09.055Z,0
2017-01-12T05:05:08.397Z,0
2017-01-12T05:06:09.624Z,0
2017-01-12T05:07:08.943Z,0
2017-01-12T05:08:10.134Z,0
2017-01-12T05:09:07.605Z,0
2017-01-12T05:10:08.865Z,0
2017-01-12T05:11:08.494Z,0
2017-01-12T05:12:09.530Z,0
2017-01-12T05:13:09.549Z,0
2017-01-12T05:14:09.503Z,0
2017-01-12T05:15:08.725Z,0
2017-01-12T05:16:08.571Z,0
2017-01-12T05:17:08.605Z,0
2017-01-12T05:18:08.336Z,0
2017-01-12T05:19:07.879Z,0
2017-01-12T05:20:08.665Z,0
2017-01-12T05:21:09.694Z,0
2017-01-12T05:22:09.358Z,0
2017-01-12T05:23:08.826Z,0
2017-01-12T05:24:08.990Z,0
2017-01-12T05:25:08.836Z,0
2017-01-12T05:26:07.714Z,0
2017-01-12T05:27:08.856Z,0
2017-01-12T05:28:08.142Z,0
2017-01-12T05:29:08.529Z,0
2017-01-12T05:30:08.111Z,0
2017-01-12T05:31:08.003Z,0
2017-01-12T05:32:07.759Z,0
2017-01-12T05:33:08.360Z,0
2017-01-12T05:34:09.073Z,0
2017-01-12T05:35:08.171Z,0
2017-01-12T05:36:08.920Z,0
2017-01-12T05:37:08.150Z,0
2017-01-12T05:38:06.776Z,0
2017-01-12T05:39:08.346Z,0
2017-01-12T05:40:09.195Z,0
2017-01-12T05:41:08.814Z,0
2017-01-12T05:42:08.875Z,0
2017-01-12T05:43:09.075Z,0
2017-01-12T05:44:07.778Z,0
2017-01-12T05:45:08.006Z,0
2017-01-12T05:46:08.604Z,0
2017-01-12T05:47:08.076Z,0
2017-01-12T05:48:08.274Z,0
2017-01-12T05:49:07.918Z,0
2017-01-12T05:50:08.123Z,0
2017-01-12T05:51:08.203Z,0
2017-01-12T05:52:07.721Z,0
2017-01-12T05:53:08.554Z,0
2017-01-12T05:54:08.121Z,0
2017-01-12T05:55:07.529Z,0
2017-01-12T05:56:07.817Z,0
2017-01-12T05:57:08.276Z,0
2017-01-12T05:58:08.975Z,0
2017-01-12T05:59:07.829Z,0
2017-01-12T06:00:07.837Z,0
2017-01-12T06:01:08.356Z,0
2017-01-12T06:02:07.605Z,0
2017-01-12T06:03:06.997Z,0
2017-01-12T06:04:06.903Z,0
2017-01-12T06:05:08.244Z,0
2017-01-12T06:06:08.252Z,0
2017-01-12T06:07:07.403Z,0
2017-01-12T06:08:06.844Z,0
2017-01-12T06:09:07.501Z,0
2017-01-12T06:10:07.812Z,0
2017-01-12T06:11:07.090Z,0
2017-01-12T06:12:07.407Z,0
2017-01-12T06:13:07.510Z,0
2017-01-12T06:14:06.626Z,0
2017-01-12T06:15:07.329Z,0
2017-01-12T06:16:06.611Z,0
2017-01-12T06:17:06.239Z,0
2017-01-12T06:18:07.918Z,0
2017-01-12T06:19:06.616Z,0
2017-01-12T06:20:06.940Z,0
2017-01-12T06:21:07.555Z,0
2017-01-12T06:22:06.995Z,0
2017-01-12T06:23:06.545Z,0
2017-01-12T06:24:07.473Z,0
2017-01-12T06:25:07.064Z,0
2017-01-12T06:26:07.113Z,0
2017-01-12T06:27:07.569Z,0
2017-01-12T06:28:06.376Z,0
2017-01-12T06:29:06.919Z,0
2017-01-12T06:30:07.943Z,0
2017-01-12T06:31:07.321Z,0
2017-01-12T06:32:06.630Z,0
2017-01-12T06:33:06.891Z,0
2017-01-12T06:34:08.214Z,0
2017-01-12T06:35:05.638Z,0
2017-01-12T06:36:07.415Z,0
2017-01-12T06:37:06.420Z,0
2017-01-12T06:38:05.808Z,0
2017-01-12T06:39:07.784Z,0
2017-01-12T06:40:07.109Z,0
2017-01-12T06:41:06.310Z,0
2017-01-12T06:42:06.720Z,0
2017-01-12T06:43:07.320Z,0
2017-01-12T06:44:07.814Z,0
2017-01-12T06:45:06.974Z,0
2017-01-12T06:46:06.807Z,0
2017-01-12T06:47:06.358Z,0
2017-01-12T06:48:06.793Z,0
2017-01-12T06:49:05.819Z,0
2017-01-12T06:50:07.837Z,0
2017-01-12T06:51:06.718Z,0
2017-01-12T06:52:06.824Z,0
2017-01-12T06:53:06.285Z,0
2017-01-12T06:54:06.381Z,0
2017-01-12T06:55:07.704Z,0
2017-01-12T06:56:07.224Z,0
2017-01-12T06:57:06.646Z,0
2017-01-12T06:58:06.489Z,0
2017-01-12T06:59:05.643Z,0
2017-01-12T07:00:06.831Z,0
2017-01-12T07:01:06.488Z,0
2017-01-12T07:02:06.561Z,0
2017-01-12T07:03:06.919Z,0
2017-01-12T07:04:06.408Z,0
2017-01-12T07:05:05.499Z,0
2017-01-12T07:06:06.456Z,0
2017-01-12T07:07:05.316Z,0
2017-01-12T07:08:07.102Z,0
2017-01-12T07:09:05.065Z,0
2017-01-12T07:10:06.342Z,0
2017-01-12T07:11:05.964Z,0
2017-01-12T07:12:05.230Z,0
2017-01-12T07:13:05.312Z,0
2017-01-12T07:14:06.589Z,0
2017-01-12T07:15:06.241Z,0
2017-01-12T07:16:05.803Z,0
2017-01-12T07:17:05.146Z,0
2017-01-12T07:18:06.256Z,0
2017-01-12T07:19:06.486Z,0
2017-01-12T07:20:07.120Z,0
2017-01-12T07:21:06.417Z,0
2017-01-12T07:22:06.435Z,0
2017-01-12T07:23:04.561Z,0
2017-01-12T07:24:05.285Z,0
2017-01-12T07:25:06.174Z,0
2017-01-12T07:26:05.294Z,0
2017-01-12T07:27:05.460Z,0
2017-01-12T07:28:05.011Z,0
2017-01-12T07:29:05.134Z,0
2017-01-12T07:30:05.254Z,5
2017-01-12T07:31:06.493Z,5
2017-01-12T07:32:06.837Z,5
2017-01-12T07:33:05.237Z,5
2017-01-12T07:34:06.024Z,5
2017-01-12T07:35:05.390Z,5
2017-01-12T07:36:05.573Z,5
2017-01-12T07:37:04.807Z,5
2017-01-12T07:38:05.230Z,5
2017-01-12T07:39:05.574Z,10
2017-01-12T07:40:05.143Z,10
2017-01-12T07:41:06.148Z,10
2017-01-12T07:42:03.920Z,10
2017-01-12T07:43:05.617Z,10
2017-01-12T07:44:05.519Z,10
2017-01-12T07:45:06.427Z,5
2017-01-12T07:46:05.505Z,5
2017-01-12T07:47:04.712Z,5
2017-01-12T07:48:05.190Z,5
2017-01-12T07:49:05.924Z,10
2017-01-12T07:50:05.273Z,10
2017-01-12T07:51:05.174Z,10
2017-01-12T07:52:05.171Z,10
2017-01-12T07:53:06.302Z,10
2017-01-12T07:54:05.458Z,10
2017-01-12T07:55:04.189Z,10
2017-01-12T07:56:06.077Z,15
2017-01-12T07:57:05.834Z,15
2017-01-12T07:58:04.690Z,15
2017-01-12T07:59:03.941Z,15
2017-01-12T08:00:04.397Z,15
2017-01-12T08:01:04.630Z,15
2017-01-12T08:02:04.759Z,20
2017-01-12T08:03:04.665Z,20
2017-01-12T08:04:03.388Z,20
2017-01-12T08:05:05.307Z,20
2017-01-12T08:06:04.561Z,20
2017-01-12T08:07:04.612Z,20
2017-01-12T08:08:04.571Z,25
2017-01-12T08:09:04.333Z,25
2017-01-12T08:10:04.353Z,30
2017-01-12T08:11:04.747Z,30
2017-01-12T08:12:03.892Z,35
2017-01-12T08:13:05.312Z,35
2017-01-12T08:14:04.091Z,35
2017-01-12T08:15:04.682Z,30
2017-01-12T08:16:04.941Z,35
2017-01-12T08:17:04.997Z,40
2017-01-12T08:18:05.175Z,40
2017-01-12T08:19:04.189Z,45
2017-01-12T08:20:05.545Z,40
2017-01-12T08:21:04.813Z,40
2017-01-12T08:22:05.098Z,40
2017-01-12T08:23:05.178Z,40
2017-01-12T08:24:04.215Z,40
2017-01-12T08:25:04.187Z,45
2017-01-12T08:26:04.888Z,45
2017-01-12T08:27:04.799Z,50
2017-01-12T08:28:04.637Z,60
2017-01-12T08:29:05.256Z,65
2017-01-12T08:30:04.792Z,40
2017-01-12T08:31:04.213Z,45
2017-01-12T08:32:04.033Z,55
2017-01-12T08:33:03.854Z,65
2017-01-12T08:34:04.178Z,65
2017-01-12T08:35:05.151Z,65
2017-01-12T08:36:05.279Z,65
2017-01-12T08:37:03.584Z,65
2017-01-12T08:38:04.391Z,115
2017-01-12T08:39:03.791Z,95
2017-01-12T08:40:04.180Z,65
2017-01-12T08:41:04.108Z,70
2017-01-12T08:42:03.214Z,60
2017-01-12T08:43:03.017Z,60
2017-01-12T08:44:04.082Z,60
2017-01-12T08:45:02.987Z,55
2017-01-12T08:46:03.597Z,50
2017-01-12T08:47:03.833Z,60
2017-01-12T08:48:04.278Z,70
2017-01-12T08:49:03.591Z,145
2017-01-12T08:50:04.944Z,160
2017-01-12T08:51:03.469Z,130
2017-01-12T08:52:03.243Z,90
2017-01-12T08:53:03.173Z,115
2017-01-12T08:54:03.414Z,115
2017-01-12T08:55:03.795Z,135
2017-01-12T08:56:03.202Z,135
2017-01-12T08:57:03.541Z,280
2017-01-12T08:58:03.361Z,370
2017-01-12T08:59:04.281Z,325
2017-01-12T09:00:04.175Z,305
2017-01-12T09:01:02.173Z,310
2017-01-12T09:02:03.833Z,345
2017-01-12T09:03:03.188Z,340
2017-01-12T09:04:03.288Z,325
2017-01-12T09:05:03.705Z,220
2017-01-12T09:06:03.777Z,70
2017-01-12T09:07:03.045Z,60
2017-01-12T09:08:03.699Z,65
2017-01-12T09:09:02.766Z,75
2017-01-12T09:10:04.609Z,85
2017-01-12T09:11:02.457Z,105
2017-01-12T09:12:03.285Z,115
2017-01-12T09:13:03.264Z,135
2017-01-12T09:14:02.382Z,220
2017-01-12T09:15:03.733Z,660
2017-01-12T09:16:03.071Z,670
2017-01-12T09:17:03.662Z,595
2017-01-12T09:18:03.076Z,645
2017-01-12T09:19:02.680Z,685
2017-01-12T09:20:04.093Z,600
2017-01-12T09:21:01.582Z,610
2017-01-12T09:22:02.258Z,705
2017-01-12T09:23:02.024Z,590
2017-01-12T09:24:03.499Z,170
2017-01-12T09:25:01.764Z,165
2017-01-12T09:26:02.722Z,145
2017-01-12T09:27:02.427Z,130
2017-01-12T09:28:02.116Z,150
2017-01-12T09:29:01.684Z,160
2017-01-12T09:30:03.335Z,240
2017-01-12T09:31:03.312Z,580
2017-01-12T09:32:02.254Z,655
2017-01-12T09:33:03.974Z,650
2017-01-12T09:34:01.803Z,750
2017-01-12T09:35:02.483Z,800
2017-01-12T09:36:02.302Z,770
2017-01-12T09:37:02.493Z,745
2017-01-12T09:38:02.780Z,185
2017-01-12T09:39:03.369Z,150
2017-01-12T09:40:02.480Z,140
2017-01-12T09:41:03.803Z,190
2017-01-12T09:42:01.629Z,210
2017-01-12T09:43:03.525Z,550
2017-01-12T09:44:03.059Z,510
2017-01-12T09:45:02.699Z,615
2017-01-12T09:46:01.401Z,335
2017-01-12T09:47:02.677Z,305
2017-01-12T09:48:02.265Z,170
2017-01-12T09:49:01.575Z,155
2017-01-12T09:50:02.755Z,370
2017-01-12T09:51:03.674Z,715
2017-01-12T09:52:01.310Z,805
2017-01-12T09:53:02.630Z,820
2017-01-12T09:54:03.192Z,885
2017-01-12T09:55:02.203Z,825
2017-01-12T09:56:02.541Z,710
2017-01-12T09:57:03.391Z,625
2017-01-12T09:58:02.624Z,585
2017-01-12T09:59:02.671Z,585
2017-01-12T10:00:03.658Z,425
2017-01-12T10:01:01.245Z,380
2017-01-12T10:02:02.649Z,480
2017-01-12T10:03:01.139Z,365
2017-01-12T10:04:02.137Z,300
2017-01-12T10:05:02.094Z,205
2017-01-12T10:06:02.105Z,265
2017-01-12T10:07:02.396Z,215
2017-01-12T10:08:01.264Z,290
2017-01-12T10:09:01.633Z,265
2017-01-12T10:10:02.025Z,265
2017-01-12T10:11:01.889Z,285
2017-01-12T10:12:01.943Z,375
2017-01-12T10:13:02.548Z,345
2017-01-12T10:14:02.173Z,285
2017-01-12T10:15:01.933Z,270
2017-01-12T10:16:02.163Z,260
2017-01-12T10:17:01.155Z,235
2017-01-12T10:18:02.091Z,205
2017-01-12T10:19:02.140Z,230
2017-01-12T10:20:01.939Z,235
2017-01-12T10:21:03.019Z,295
2017-01-12T10:22:03.029Z,300
2017-01-12T10:23:01.380Z,270
2017-01-12T10:24:02.068Z,280
2017-01-12T10:25:01.222Z,500
2017-01-12T10:26:00.965Z,425
2017-01-12T10:27:02.745Z,235
2017-01-12T10:28:00.826Z,255
2017-01-12T10:29:02.531Z,285
2017-01-12T10:30:01.277Z,290
2017-01-12T10:31:01.064Z,330
2017-01-12T10:32:01.729Z,350
2017-01-12T10:33:01.303Z,340
2017-01-12T10:34:01.588Z,380
2017-01-12T10:35:00.547Z,395
2017-01-12T10:36:01.226Z,310
2017-01-12T10:37:01.687Z,275
2017-01-12T10:38:02.068Z,280
2017-01-12T10:39:01.338Z,265
2017-01-12T10:40:01.028Z,310
2017-01-12T10:41:01.689Z,365
2017-01-12T10:42:01.017Z,395
2017-01-12T10:43:02.461Z,365
2017-01-12T10:44:01.466Z,285
2017-01-12T10:45:00.865Z,260
2017-01-12T10:46:00.977Z,275
2017-01-12T10:47:00.330Z,315
2017-01-12T10:48:02.393Z,335
2017-01-12T10:49:01.702Z,420
2017-01-12T10:50:00.746Z,415
2017-01-12T10:51:01.833Z,270
2017-01-12T10:52:02.410Z,345
2017-01-12T10:53:00.031Z,340
2017-01-12T10:54:01.070Z,375
2017-01-12T10:55:02.060Z,305
2017-01-12T10:56:00.799Z,335
2017-01-12T10:57:02.048Z,375
2017-01-12T10:58:01.957Z,410
2017-01-12T10:59:01.648Z,375
2017-01-12T11:00:01.818Z,410
2017-01-12T11:01:01.786Z,425
2017-01-12T11:02:00.341Z,430
2017-01-12T11:03:02.220Z,500
2017-01-12T11:04:01.392Z,525
2017-01-12T11:05:00.144Z,575
2017-01-12T11:06:01.182Z,605
2017-01-12T11:07:01.311Z,685
2017-01-12T11:08:00.815Z,735
2017-01-12T11:09:00.721Z,740
2017-01-12T11:10:00.346Z,780
2017-01-12T11:11:01.048Z,805
2017-01-12T11:12:02.081Z,740
2017-01-12T11:13:01.274Z,725
2017-01-12T11:14:01.328Z,720
2017-01-12T11:15:01.378Z,595
2017-01-12T11:16:01.510Z,625
2017-01-12T11:17:00.544Z,555
2017-01-12T11:18:00.813Z,590
2017-01-12T11:19:00.653Z,540
2017-01-12T11:20:00.621Z,580
2017-01-12T11:20:59.979Z,605
2017-01-12T11:22:01.105Z,625
2017-01-12T11:23:01.222Z,400
2017-01-12T11:24:01.195Z,595
2017-01-12T11:25:00.318Z,215
2017-01-12T11:26:00.157Z,555
2017-01-12T11:27:01.154Z,420
2017-01-12T11:28:00.856Z,495
2017-01-12T11:29:00.765Z,420
2017-01-12T11:30:01.270Z,565
2017-01-12T11:31:00.414Z,565
2017-01-12T11:32:01.067Z,515
2017-01-12T11:33:00.873Z,515
2017-01-12T11:34:00.393Z,520
2017-01-12T11:35:00.991Z,495
2017-01-12T11:35:59.666Z,445
2017-01-12T11:37:01.290Z,480
2017-01-12T11:38:00.396Z,505
2017-01-12T11:38:59.958Z,545
2017-01-12T11:40:00.905Z,470
2017-01-12T11:40:59.811Z,210
2017-01-12T11:42:00.755Z,180
2017-01-12T11:43:00.447Z,370
2017-01-12T11:43:59.691Z,445
2017-01-12T11:45:00.382Z,165
2017-01-12T11:46:00.064Z,335
2017-01-12T11:47:00.450Z,315
2017-01-12T11:48:00.180Z,160
2017-01-12T11:49:01.376Z,115
2017-01-12T11:50:00.571Z,140
2017-01-12T11:50:59.460Z,300
2017-01-12T11:52:00.340Z,320
2017-01-12T11:52:59.884Z,470
2017-01-12T11:53:59.332Z,535
2017-01-12T11:54:59.896Z,570
2017-01-12T11:56:00.266Z,130
2017-01-12T11:57:00.918Z,160
2017-01-12T11:58:00.677Z,265
2017-01-12T11:58:59.672Z,325
2017-01-12T11:59:59.212Z,170
2017-01-12T12:00:59.660Z,105
2017-01-12T12:02:00.144Z,95
2017-01-12T12:03:00.341Z,195
2017-01-12T12:04:00.980Z,540
2017-01-12T12:05:00.070Z,265
2017-01-12T12:06:00.447Z,245
2017-01-12T12:06:59.708Z,660
2017-01-12T12:08:01.025Z,545
2017-01-12T12:09:00.405Z,375
2017-01-12T12:09:59.675Z,440
2017-01-12T12:10:59.234Z,210
2017-01-12T12:12:00.943Z,485
2017-01-12T12:13:00.243Z,385
2017-01-12T12:13:59.612Z,330
2017-01-12T12:14:58.987Z,230
2017-01-12T12:15:59.133Z,125
2017-01-12T12:16:59.736Z,165
2017-01-12T12:17:59.428Z,260
2017-01-12T12:18:59.669Z,225
2017-01-12T12:19:59.364Z,120
2017-01-12T12:20:59.778Z,225
2017-01-12T12:21:59.302Z,250
2017-01-12T12:23:00.678Z,380
2017-01-12T12:23:59.053Z,400
2017-01-12T12:24:59.688Z,160
2017-01-12T12:26:00.195Z,130
2017-01-12T12:26:59.993Z,370
2017-01-12T12:27:59.612Z,145
2017-01-12T12:28:59.279Z,505
2017-01-12T12:29:58.342Z,355
2017-01-12T12:30:59.872Z,520
2017-01-12T12:31:59.841Z,195
2017-01-12T12:32:59.854Z,180
2017-01-12T12:33:59.402Z,660
2017-01-12T12:34:58.419Z,135
2017-01-12T12:35:58.718Z,135
2017-01-12T12:36:59.328Z,245
2017-01-12T12:37:59.092Z,415
2017-01-12T12:38:59.492Z,335
2017-01-12T12:39:58.946Z,290
2017-01-12T12:40:59.748Z,225
2017-01-12T12:41:59.396Z,400
2017-01-12T12:43:00.325Z,265
2017-01-12T12:43:59.294Z,315
2017-01-12T12:44:59.452Z,310
2017-01-12T12:45:59.671Z,250
2017-01-12T12:46:59.485Z,200
2017-01-12T12:48:00.218Z,185
2017-01-12T12:48:59.031Z,195
2017-01-12T12:49:59.359Z,135
2017-01-12T12:50:59.531Z,140
2017-01-12T12:51:59.513Z,170
2017-01-12T12:52:58.311Z,165
2017-01-12T12:53:58.953Z,170
2017-01-12T12:55:00.069Z,160
2017-01-12T12:55:59.152Z,130
2017-01-12T12:56:58.906Z,120
2017-01-12T12:57:58.761Z,120
2017-01-12T12:58:58.003Z,110
2017-01-12T12:59:57.965Z,110
2017-01-12T13:00:59.288Z,110
2017-01-12T13:01:59.002Z,115
2017-01-12T13:02:59.574Z,115
2017-01-12T13:03:59.234Z,110
2017-01-12T13:04:59.710Z,105
2017-01-12T13:05:59.406Z,110
2017-01-12T13:06:58.171Z,120
2017-01-12T13:07:58.492Z,120
2017-01-12T13:08:59.460Z,115
2017-01-12T13:09:58.363Z,110
2017-01-12T13:10:58.421Z,95
2017-01-12T13:11:58.341Z,85
2017-01-12T13:12:57.686Z,85
2017-01-12T13:13:59.180Z,95
2017-01-12T13:14:58.591Z,85
2017-01-12T13:15:58.288Z,80
2017-01-12T13:16:59.671Z,80
2017-01-12T13:17:58.138Z,75
2017-01-12T13:18:58.558Z,70
2017-01-12T13:19:58.777Z,55
2017-01-12T13:20:57.427Z,55
2017-01-12T13:21:58.721Z,55
2017-01-12T13:22:58.076Z,65
2017-01-12T13:23:59.153Z,65
2017-01-12T13:24:58.013Z,55
2017-01-12T13:25:59.040Z,55
2017-01-12T13:26:58.628Z,50
2017-01-12T13:27:58.294Z,45
2017-01-12T13:28:58.893Z,40
2017-01-12T13:29:58.570Z,45
2017-01-12T13:30:57.662Z,45
2017-01-12T13:31:57.852Z,40
2017-01-12T13:32:58.161Z,45
2017-01-12T13:33:57.937Z,40
2017-01-12T13:34:57.349Z,45
2017-01-12T13:35:58.562Z,40
2017-01-12T13:36:57.837Z,40
2017-01-12T13:37:58.167Z,40
2017-01-12T13:38:58.238Z,40
2017-01-12T13:39:57.068Z,40
2017-01-12T13:40:57.449Z,40
2017-01-12T13:41:57.636Z,40
2017-01-12T13:42:57.397Z,40
2017-01-12T13:43:57.206Z,45
2017-01-12T13:44:56.227Z,45
2017-01-12T13:45:58.817Z,45
2017-01-12T13:46:57.684Z,40
2017-01-12T13:47:57.221Z,40
2017-01-12T13:48:58.143Z,40
2017-01-12T13:49:57.762Z,40
2017-01-12T13:50:56.219Z,40
2017-01-12T13:51:56.551Z,40
2017-01-12T13:52:57.758Z,40
2017-01-12T13:53:57.911Z,40
2017-01-12T13:54:58.036Z,35
2017-01-12T13:55:57.457Z,35
2017-01-12T13:56:57.948Z,35
2017-01-12T13:57:57.588Z,35
2017-01-12T13:58:57.355Z,30
2017-01-12T13:59:58.344Z,30
2017-01-12T14:00:57.857Z,30
2017-01-12T14:01:57.946Z,30
2017-01-12T14:02:56.805Z,30
2017-01-12T14:03:57.205Z,25
2017-01-12T14:04:58.004Z,25
2017-01-12T14:05:57.867Z,25
2017-01-12T14:06:57.132Z,25
2017-01-12T14:07:57.087Z,25
2017-01-12T14:08:57.826Z,25
2017-01-12T14:09:57.243Z,25
2017-01-12T14:10:57.768Z,25
2017-01-12T14:11:56.760Z,25
2017-01-12T14:12:57.428Z,25
2017-01-12T14:13:58.015Z,25
2017-01-12T14:14:56.231Z,25
2017-01-12T14:15:56.859Z,25
2017-01-12T14:16:56.888Z,25
2017-01-12T14:17:56.748Z,25
2017-01-12T14:18:57.988Z,25
2017-01-12T14:19:57.768Z,25
2017-01-12T14:20:56.256Z,25
2017-01-12T14:21:57.436Z,25